Time;durP1;ratioP1;P1;durP2;ratioP2;P2;SDS_P1;SDS_P2;PMS_P1;PMS_P2;Temp;Humidity;BMP_temperature;BMP_pressure;BME280_temperature;BME280_humidity;BME280_pressure;Samples;Min_cycle;Max_cycle;Signal;HPM_P1;HPM_P2
2023/11/04 00:00:38;;;;;;;18.50;12.90;;;;;;;11.11;86.17;98145.48;107180;1256;60304;-37
2023/11/04 00:03:26;;;;;;;18.50;13.50;;;;;;;11.08;86.44;98149.52;107127;1258;73870;-37
2023/11/04 00:05:54;;;;;;;19.60;13.00;;;;;;;11.06;86.56;98148.68;107202;1263;67595;-37
2023/11/04 00:08:22;;;;;;;18.20;12.10;;;;;;;11.09;86.58;98140.92;107241;1257;72787;-37
2023/11/04 00:10:50;;;;;;;16.80;12.50;;;;;;;11.15;86.23;98134.09;107130;1263;59552;-37
2023/11/04 00:13:18;;;;;;;19.40;13.60;;;;;;;11.14;86.34;98131.45;107088;1257;60089;-37
2023/11/04 00:15:47;;;;;;;20.30;14.60;;;;;;;11.11;86.49;98133.33;107105;1257;73940;-37
2023/11/04 00:18:15;;;;;;;17.60;13.10;;;;;;;11.09;86.57;98126.50;107255;1258;67575;-37
2023/11/04 00:20:43;;;;;;;15.90;12.30;;;;;;;11.13;86.40;98126.98;107222;1258;72695;-37
2023/11/04 00:23:18;;;;;;;18.00;13.30;;;;;;;11.16;86.37;98122.30;107244;1261;60381;-37
2023/11/04 00:25:46;;;;;;;17.20;13.40;;;;;;;11.15;86.55;98126.42;107286;1260;60436;-37
2023/11/04 00:28:13;;;;;;;19.20;14.60;;;;;;;11.12;86.73;98135.50;107242;1257;73827;-37
2023/11/04 00:30:41;;;;;;;18.20;13.30;;;;;;;11.12;86.77;98135.18;107226;1257;66307;-37
2023/11/04 00:33:09;;;;;;;17.00;12.60;;;;;;;11.15;86.79;98140.13;107208;1257;71382;-37
2023/11/04 00:35:37;;;;;;;19.30;14.00;;;;;;;11.19;86.62;98134.77;107235;1260;60341;-37
2023/11/04 00:38:05;;;;;;;17.00;14.20;;;;;;;11.18;86.74;98141.68;107254;1260;60054;-37
2023/11/04 00:40:33;;;;;;;18.60;13.80;;;;;;;11.16;87.06;98153.69;107271;1257;74301;-37
2023/11/04 00:43:01;;;;;;;19.00;13.90;;;;;;;11.18;87.03;98159.73;107231;1257;66308;-37
2023/11/04 00:45:28;;;;;;;15.90;12.70;;;;;;;11.24;86.96;98160.17;107218;1257;71871;-37
2023/11/04 00:47:56;;;;;;;18.80;14.20;;;;;;;11.26;86.99;98162.04;107216;1257;60293;-37
2023/11/04 00:50:24;;;;;;;20.10;14.60;;;;;;;11.23;87.03;98157.78;107225;1257;60434;-37
2023/11/04 00:52:51;;;;;;;17.30;12.60;;;;;;;11.24;87.23;98150.58;107090;1257;73898;-37
2023/11/04 00:55:19;;;;;;;16.00;13.10;;;;;;;11.31;87.05;98131.39;107167;1257;66605;-37
2023/11/04 00:57:47;;;;;;;15.40;13.00;;;;;;;11.37;86.83;98095.64;107030;1258;72669;-35
2023/11/04 01:00:17;;;;;;;18.80;14.70;;;;;;;11.38;86.85;98076.56;107112;1261;60534;-36
2023/11/04 01:02:45;;;;;;;;;;;;;;;11.34;87.01;98110.14;107175;1257;60064;-37
2023/11/04 01:05:12;;;;;;;16.90;13.00;;;;;;;11.31;86.99;98127.14;107076;1262;73814;-37
2023/11/04 01:07:40;;;;;;;15.70;12.40;;;;;;;11.34;86.95;98123.55;107026;1256;68015;-36
2023/11/04 01:10:08;;;;;;;14.90;12.80;;;;;;;11.40;86.78;98130.89;107247;1257;71368;-37
2023/11/04 01:12:36;;;;;;;16.20;12.80;;;;;;;11.41;86.96;98124.16;107124;1261;60435;-36
2023/11/04 01:15:04;;;;;;;20.20;13.50;;;;;;;11.39;86.93;98130.13;107265;1258;60399;-36
2023/11/04 01:17:32;;;;;;;17.20;12.40;;;;;;;11.40;86.87;98137.02;107245;1258;73931;-36
2023/11/04 01:19:59;;;;;;;17.10;13.00;;;;;;;11.45;86.80;98136.15;107212;1261;67582;-36
2023/11/04 01:22:27;;;;;;;18.20;13.90;;;;;;;11.47;86.84;98147.63;107219;1260;72670;-36
2023/11/04 01:24:54;;;;;;;19.80;14.60;;;;;;;11.45;86.89;98157.23;107083;1257;60350;-37
2023/11/04 01:27:22;;;;;;;16.00;13.50;;;;;;;11.45;87.02;98138.16;107230;1256;60499;-37
2023/11/04 01:29:50;;;;;;;15.40;12.20;;;;;;;11.48;86.82;98137.76;107272;1257;72985;-36
2023/11/04 01:32:19;;;;;;;16.80;14.30;;;;;;;11.55;86.76;98144.95;107276;1260;67572;-37
2023/11/04 01:34:47;;;;;;;16.40;13.70;;;;;;;11.57;86.70;98130.82;107303;1257;71440;-36
2023/11/04 01:37:15;;;;;;;17.50;14.20;;;;;;;11.57;86.81;98118.09;107295;1258;60501;-36
2023/11/04 01:39:44;;;;;;;15.80;12.30;;;;;;;11.57;86.67;98120.02;107318;1258;59234;-36
2023/11/04 01:42:11;;;;;;;13.80;11.60;;;;;;;11.63;86.50;98124.59;107462;1257;73884;-36
2023/11/04 01:44:39;;;;;;;16.20;12.90;;;;;;;11.67;86.38;98134.95;107340;1257;67681;-36
2023/11/04 01:47:06;;;;;;;17.50;13.80;;;;;;;11.66;86.45;98139.30;107360;1260;72623;-36
2023/11/04 01:49:34;;;;;;;16.20;13.10;;;;;;;11.64;86.50;98145.52;107360;1255;60232;-36
2023/11/04 01:52:03;;;;;;;16.90;13.30;;;;;;;11.64;86.55;98143.11;107323;1257;60463;-36
2023/11/04 01:54:30;;;;;;;15.20;11.50;;;;;;;11.68;86.39;98149.45;107369;1255;72593;-37
2023/11/04 01:56:58;;;;;;;15.80;12.40;;;;;;;11.74;86.41;98154.80;107422;1260;67885;-37
2023/11/04 01:59:26;;;;;;;17.20;13.30;;;;;;;11.74;86.41;98163.34;107253;1257;72497;-37
2023/11/04 02:01:54;;;;;;;15.80;13.30;;;;;;;11.74;86.65;98160.16;107322;1257;60405;-37
2023/11/04 02:04:21;;;;;;;19.10;12.70;;;;;;;11.73;86.64;98154.65;107444;1255;60678;-36
2023/11/04 02:06:49;;;;;;;15.60;12.20;;;;;;;11.80;86.43;98148.33;107229;1256;73898;-37
2023/11/04 02:09:18;;;;;;;15.70;12.70;;;;;;;11.86;86.18;98145.83;107166;1257;67598;-37
2023/11/04 02:11:46;;;;;;;15.00;10.70;;;;;;;11.86;86.36;98153.60;107126;1257;72469;-37
2023/11/04 02:14:15;;;;;;;19.20;14.10;;;;;;;11.84;86.49;98151.48;107412;1260;60300;-36
2023/11/04 02:16:42;;;;;;;17.80;13.70;;;;;;;11.84;86.56;98150.73;107290;1255;60110;-37
2023/11/04 02:19:10;;;;;;;18.60;13.00;;;;;;;11.87;86.33;98153.34;107329;1255;72641;-37
2023/11/04 02:21:38;;;;;;;17.30;13.70;;;;;;;11.90;86.41;98154.73;107321;1257;67551;-37
2023/11/04 02:24:07;;;;;;;18.60;14.60;;;;;;;11.89;86.65;98153.95;107276;1257;71425;-37
2023/11/04 02:26:35;;;;;;;19.20;14.30;;;;;;;11.87;86.80;98157.28;107247;1257;60409;-37
2023/11/04 02:29:03;;;;;;;20.80;14.30;;;;;;;11.90;86.82;98154.09;107225;1257;60345;-37
2023/11/04 02:31:30;;;;;;;19.00;14.20;;;;;;;11.95;86.70;98155.08;107270;1257;72826;-37
2023/11/04 02:33:58;;;;;;;21.20;15.60;;;;;;;11.96;86.91;98165.84;107265;1259;67727;-36
2023/11/04 02:36:25;;;;;;;22.10;15.60;;;;;;;11.95;86.98;98167.89;107248;1257;71656;-36
2023/11/04 02:38:53;;;;;;;22.50;14.80;;;;;;;11.93;87.11;98174.10;107211;1257;60956;-36
2023/11/04 02:41:20;;;;;;;19.80;14.80;;;;;;;11.97;87.18;98167.64;107201;1260;60383;-36
2023/11/04 02:43:48;;;;;;;20.40;15.60;;;;;;;12.01;87.20;98167.84;107278;1255;73806;-37
2023/11/04 02:46:16;;;;;;;26.90;16.40;;;;;;;12.01;87.42;98170.78;107265;1257;67717;-36
2023/11/04 02:48:43;;;;;;;21.90;15.80;;;;;;;12.01;87.68;98163.10;107247;1257;72641;-37
2023/11/04 02:51:11;;;;;;;20.00;15.00;;;;;;;12.00;87.65;98139.20;107244;1257;61700;-36
2023/11/04 02:53:39;;;;;;;20.70;14.70;;;;;;;12.06;87.52;98130.55;107345;1257;60309;-36
2023/11/04 02:56:07;;;;;;;22.20;15.90;;;;;;;12.07;87.34;98116.66;107336;1257;73838;-37
2023/11/04 02:58:35;;;;;;;22.00;15.40;;;;;;;12.01;87.61;98115.45;107341;1257;67563;-37
2023/11/04 03:01:03;;;;;;;24.20;16.80;;;;;;;11.96;88.07;98131.16;107457;1256;72684;-37
2023/11/04 03:03:31;;;;;;;24.90;15.80;;;;;;;11.96;88.20;98127.13;107356;1257;61631;-37
2023/11/04 03:06:00;;;;;;;23.90;16.40;;;;;;;12.00;88.25;98122.22;107289;1257;60405;-37
2023/11/04 03:08:29;;;;;;;22.50;15.50;;;;;;;12.02;88.44;98119.71;107330;1256;73821;-37
2023/11/04 03:10:56;;;;;;;22.10;15.70;;;;;;;12.00;88.61;98112.75;107380;1257;67599;-37
2023/11/04 03:13:24;;;;;;;22.30;15.10;;;;;;;12.00;88.87;98103.60;107292;1257;71433;-37
2023/11/04 03:15:52;;;;;;;21.60;14.50;;;;;;;12.01;88.68;98103.27;107216;1257;61644;-37
2023/11/04 03:18:19;;;;;;;20.10;14.10;;;;;;;12.05;88.45;98112.39;107232;1255;60990;-37
2023/11/04 03:20:47;;;;;;;21.20;15.70;;;;;;;12.04;88.76;98105.04;107395;1256;73789;-37
2023/11/04 03:23:15;;;;;;;21.00;14.20;;;;;;;12.02;88.97;98101.33;107223;1257;66617;-37
2023/11/04 03:25:42;;;;;;;19.10;13.60;;;;;;;12.00;89.17;98112.83;107258;1257;72690;-37
2023/11/04 03:28:10;;;;;;;19.60;13.30;;;;;;;12.06;89.13;98116.43;107296;1255;60394;-37
2023/11/04 03:30:38;;;;;;;19.70;13.80;;;;;;;12.10;88.97;98113.30;107143;1257;60454;-37
2023/11/04 03:33:06;;;;;;;16.60;13.20;;;;;;;12.09;89.14;98109.66;107330;1257;73833;-37
2023/11/04 03:35:34;;;;;;;16.60;12.30;;;;;;;12.07;89.36;98104.86;107360;1256;66622;-37
2023/11/04 03:38:02;;;;;;;15.30;10.90;;;;;;;12.08;89.42;98102.36;107287;1257;72672;-37
2023/11/04 03:40:30;;;;;;;17.40;12.00;;;;;;;12.16;89.18;98104.64;107343;1256;60483;-37
2023/11/04 03:42:58;;;;;;;14.70;11.00;;;;;;;12.21;89.02;98106.31;107455;1260;60326;-37
2023/11/04 03:45:25;;;;;;;15.30;11.50;;;;;;;12.19;89.16;98107.33;107293;1258;73875;-37
2023/11/04 03:47:53;;;;;;;17.30;11.90;;;;;;;12.17;89.31;98108.66;107239;1257;67945;-37
2023/11/04 03:50:21;;;;;;;14.10;10.60;;;;;;;12.19;89.13;98102.67;107254;1257;72699;-37
2023/11/04 03:52:49;;;;;;;16.10;11.40;;;;;;;12.21;89.02;98092.33;107288;1257;60491;-37
2023/11/04 03:55:16;;;;;;;17.10;12.50;;;;;;;12.21;89.27;98098.15;107260;1257;60055;-37
2023/11/04 03:57:44;;;;;;;17.90;12.30;;;;;;;12.19;89.55;98105.55;107237;1258;73903;-37
2023/11/04 04:00:14;;;;;;;11.10;8.30;;;;;;;12.17;89.52;98111.77;107254;1257;68279;-37
2023/11/04 04:02:41;;;;;;;13.50;10.30;;;;;;;12.20;89.48;98120.37;107280;1257;72522;-37
2023/11/04 04:05:09;;;;;;;14.80;10.60;;;;;;;12.24;89.44;98125.39;107110;1257;151289;-37
2023/11/04 04:08:57;;;;;;;16.50;11.40;;;;;;;12.26;89.80;98127.70;104236;1295;601153;-37
2023/11/04 04:11:24;;;;;;;15.60;10.60;;;;;;;12.26;89.72;98115.11;106715;1270;61704;-37
2023/11/04 04:13:52;;;;;;;15.90;10.80;;;;;;;12.32;89.58;98102.19;106598;1267;60054;-36
2023/11/04 04:16:22;;;;;;;13.80;10.50;;;;;;;12.34;89.19;98097.12;106622;1267;72648;-36
2023/11/04 04:18:50;;;;;;;17.50;11.60;;;;;;;12.37;89.43;98100.73;106646;1266;67890;-37
2023/11/04 04:21:18;;;;;;;18.40;11.90;;;;;;;12.36;89.54;98104.39;106628;1267;72683;-36
2023/11/04 04:23:46;;;;;;;15.80;11.20;;;;;;;12.35;89.65;98103.55;105885;1264;1215463;-37
2023/11/04 04:26:18;;;;;;;15.80;11.30;;;;;;;12.42;89.45;98104.04;106747;1264;60065;-37
2023/11/04 04:28:46;;;;;;;17.00;12.00;;;;;;;12.48;89.19;98098.25;106896;1264;72290;-36
2023/11/04 04:31:14;;;;;;;17.50;12.70;;;;;;;12.48;89.22;98097.62;106823;1269;68185;-36
2023/11/04 04:33:42;;;;;;;18.30;12.80;;;;;;;12.47;89.39;98094.05;106745;1267;72737;-36
2023/11/04 04:36:10;;;;;;;18.90;13.00;;;;;;;12.47;89.17;98096.39;106805;1264;61687;-36
2023/11/04 04:38:38;;;;;;;17.80;12.60;;;;;;;12.51;89.12;98101.94;106846;1263;60061;-37
2023/11/04 04:41:08;;;;;;;17.70;12.70;;;;;;;12.55;89.02;98104.46;106703;1264;73034;-36
2023/11/04 04:43:36;;;;;;;20.00;14.30;;;;;;;12.54;88.98;98099.11;106656;1264;68816;-36
2023/11/04 04:46:04;;;;;;;20.10;13.70;;;;;;;12.50;89.17;98092.93;106746;1269;73052;-36
2023/11/04 04:48:33;;;;;;;18.60;13.10;;;;;;;12.51;89.12;98094.02;106687;1268;61662;-36
2023/11/04 04:51:01;;;;;;;18.30;13.20;;;;;;;12.57;89.19;98091.16;106824;1264;60065;-36
2023/11/04 04:53:29;;;;;;;18.80;14.00;;;;;;;12.60;89.24;98094.86;106787;1264;71841;-37
2023/11/04 04:55:56;;;;;;;19.70;13.90;;;;;;;12.59;89.25;98093.39;106848;1264;67607;-37
2023/11/04 04:58:24;;;;;;;17.70;12.30;;;;;;;12.57;89.26;98094.42;106769;1264;72715;-36
2023/11/04 05:00:51;;;;;;;21.80;13.70;;;;;;;12.62;89.03;98096.15;106791;1264;59598;-36
2023/11/04 05:03:19;;;;;;;24.20;14.80;;;;;;;12.68;88.89;98101.54;106842;1269;60024;-37
2023/11/04 05:05:47;;;;;;;21.80;14.10;;;;;;;12.69;88.97;98106.42;106931;1264;73061;-36
2023/11/04 05:08:15;;;;;;;20.20;14.40;;;;;;;12.66;89.16;98115.23;106882;1263;67577;-37
2023/11/04 05:10:42;;;;;;;18.60;13.50;;;;;;;12.63;89.23;98119.23;106813;1264;72678;-37
2023/11/04 05:13:10;;;;;;;19.40;13.00;;;;;;;12.67;89.09;98123.77;106809;1264;61693;-36
2023/11/04 05:15:37;;;;;;;20.40;14.30;;;;;;;12.71;88.98;98127.00;106787;1264;59503;-36
2023/11/04 05:18:05;;;;;;;20.00;14.30;;;;;;;12.69;89.25;98129.13;106822;1264;71818;-37
2023/11/04 05:20:33;;;;;;;19.90;14.20;;;;;;;12.66;89.63;98128.20;106804;1264;68029;-36
2023/11/04 05:23:00;;;;;;;19.40;13.10;;;;;;;12.67;89.66;98121.99;106596;1267;71409;-36
2023/11/04 05:25:28;;;;;;;18.70;13.00;;;;;;;12.70;89.41;98127.16;106621;1267;60468;-36
2023/11/04 05:27:55;;;;;;;19.00;13.00;;;;;;;12.73;89.54;98124.73;106720;1266;59538;-36
2023/11/04 05:30:25;;;;;;;21.20;13.90;;;;;;;12.71;89.72;98122.73;106697;1267;73051;-36
2023/11/04 05:32:53;;;;;;;21.80;14.50;;;;;;;12.69;89.93;98121.42;106727;1267;67585;-36
2023/11/04 05:35:21;;;;;;;19.70;13.00;;;;;;;12.71;89.81;98132.05;106615;1265;72698;-36
2023/11/04 05:37:49;;;;;;;20.90;13.80;;;;;;;12.74;89.92;98134.42;106713;1267;59925;-36
2023/11/04 05:40:17;;;;;;;20.90;14.00;;;;;;;12.76;90.24;98139.08;106754;1267;59617;-36
2023/11/04 05:42:45;;;;;;;21.90;14.20;;;;;;;12.75;90.30;98143.67;106747;1266;73077;-36
2023/11/04 05:45:16;;;;;;;21.30;13.70;;;;;;;12.75;90.42;98149.57;106757;1267;66684;-36
2023/11/04 05:47:47;;;;;;;19.70;13.80;;;;;;;12.79;90.36;98141.14;106729;1267;72737;-36
2023/11/04 05:50:14;;;;;;;22.20;14.80;;;;;;;12.81;90.53;98133.05;106638;1267;60640;-36
2023/11/04 05:52:44;;;;;;;22.50;13.60;;;;;;;12.80;90.71;98130.95;107132;1258;59605;-36
2023/11/04 05:55:12;;;;;;;21.50;13.80;;;;;;;12.81;90.97;98129.16;107151;1257;73076;-37
2023/11/04 05:57:40;;;;;;;21.70;13.90;;;;;;;12.85;90.69;98136.19;107231;1257;67632;-36
2023/11/04 06:00:11;;;;;;;20.30;13.40;;;;;;;12.88;90.71;98148.43;107280;1257;72720;-37
2023/11/04 06:02:39;;;;;;;22.10;14.00;;;;;;;12.89;91.00;98152.46;107173;1263;59754;-36
2023/11/04 06:05:08;;;;;;;19.20;13.50;;;;;;;12.89;91.28;98153.70;107213;1258;59513;-36
2023/11/04 06:07:36;;;;;;;22.40;13.20;;;;;;;12.89;91.42;98152.70;107241;1257;73107;-36
2023/11/04 06:10:08;;;;;;;19.00;12.70;;;;;;;12.95;91.20;98149.77;107197;1258;67566;-37
2023/11/04 06:12:36;;;;;;;20.20;13.20;;;;;;;13.01;91.13;98140.39;107100;1257;72717;-36
2023/11/04 06:15:04;;;;;;;21.20;13.60;;;;;;;13.01;91.22;98141.39;107171;1257;59590;-36
2023/11/04 06:17:32;;;;;;;18.70;12.40;;;;;;;12.97;91.56;98154.17;107259;1258;59509;-36
2023/11/04 06:20:00;;;;;;;20.40;13.30;;;;;;;12.96;91.49;98148.36;107103;1261;73082;-36
2023/11/04 06:22:28;;;;;;;18.00;12.70;;;;;;;13.00;91.55;98142.33;107152;1257;66787;-36
2023/11/04 06:24:58;;;;;;;18.40;13.20;;;;;;;13.05;91.55;98145.55;107115;1262;72787;-36
2023/11/04 06:27:25;;;;;;;20.60;13.80;;;;;;;13.03;91.84;98138.94;107126;1257;60118;-36
2023/11/04 06:29:53;;;;;;;20.80;13.20;;;;;;;13.02;92.06;98132.42;107131;1257;60048;-36
2023/11/04 06:32:21;;;;;;;20.20;13.10;;;;;;;13.08;91.95;98131.67;107086;1262;73123;-36
2023/11/04 06:34:49;;;;;;;20.70;13.80;;;;;;;13.15;91.92;98129.84;107213;1260;67567;-36
2023/11/04 06:37:17;;;;;;;21.70;14.80;;;;;;;13.17;91.91;98128.88;107025;1257;72731;-36
2023/11/04 06:39:45;;;;;;;19.10;13.50;;;;;;;13.14;92.07;98125.03;107206;1257;59618;-36
2023/11/04 06:42:18;;;;;;;21.50;12.50;;;;;;;13.16;92.15;98125.40;107232;1257;60015;-36
2023/11/04 06:44:46;;;;;;;21.80;13.60;;;;;;;13.22;91.87;98127.04;107253;1257;71395;-36
2023/11/04 06:47:13;;;;;;;20.90;14.30;;;;;;;13.25;91.61;98128.56;107087;1257;66281;-38
2023/11/04 06:49:41;;;;;;;22.50;14.90;;;;;;;13.24;91.69;98123.12;107197;1257;71472;-37
2023/11/04 06:52:09;;;;;;;20.10;14.20;;;;;;;13.21;91.95;98122.23;107175;1257;61768;-38
2023/11/04 06:54:36;;;;;;;19.30;13.60;;;;;;;13.26;91.77;98123.34;107204;1257;59295;-36
2023/11/04 06:57:04;;;;;;;21.40;14.10;;;;;;;13.31;91.64;98121.64;107199;1257;73442;-36
2023/11/04 06:59:32;;;;;;;22.70;14.90;;;;;;;13.34;91.77;98128.92;107156;1258;66581;-37
2023/11/04 07:01:59;;;;;;;21.40;14.80;;;;;;;13.33;91.83;98140.90;107172;1257;71402;-36
2023/11/04 07:04:27;;;;;;;24.80;15.10;;;;;;;13.36;91.94;98140.02;107156;1258;61678;-37
2023/11/04 07:06:55;;;;;;;22.30;15.30;;;;;;;13.42;91.65;98134.80;107133;1257;60026;-38
2023/11/04 07:09:22;;;;;;;22.20;15.20;;;;;;;13.47;91.59;98139.88;107211;1257;71784;-38
2023/11/04 07:11:50;;;;;;;24.70;16.20;;;;;;;13.47;91.68;98141.43;107239;1257;66666;-36
2023/11/04 07:14:19;;;;;;;24.30;16.00;;;;;;;13.47;91.78;98143.52;107072;1257;72663;-36
2023/11/04 07:16:47;;;;;;;21.80;15.20;;;;;;;13.53;91.55;98145.49;107170;1258;60759;-36
2023/11/04 07:19:15;;;;;;;25.40;16.30;;;;;;;13.58;91.26;98147.67;107065;1257;60088;-36
2023/11/04 07:21:45;;;;;;;25.00;16.20;;;;;;;13.58;91.20;98146.75;107068;1256;73571;-36
2023/11/04 07:24:13;;;;;;;22.20;16.00;;;;;;;13.53;91.26;98143.39;107161;1257;67675;-36
2023/11/04 07:26:41;;;;;;;27.00;14.70;;;;;;;13.52;91.45;98144.64;107021;1257;71811;-36
2023/11/04 07:29:09;;;;;;;21.50;14.80;;;;;;;13.57;91.19;98146.98;107139;1257;61777;-36
2023/11/04 07:31:37;;;;;;;23.30;15.70;;;;;;;13.58;91.10;98137.73;107147;1257;59602;-36
2023/11/04 07:34:05;;;;;;;29.40;16.50;;;;;;;13.57;91.28;98133.30;107201;1257;75213;-36
2023/11/04 07:36:32;;;;;;;23.10;15.20;;;;;;;13.56;91.38;98136.57;107229;1257;67594;-36
2023/11/04 07:39:02;;;;;;;21.40;13.90;;;;;;;13.60;91.42;98124.61;107162;1257;71548;-36
2023/11/04 07:41:30;;;;;;;23.20;15.60;;;;;;;13.65;91.19;98119.49;107227;1258;60098;-36
2023/11/04 07:43:58;;;;;;;22.40;16.10;;;;;;;13.65;91.11;98119.35;107203;1257;60030;-36
2023/11/04 07:46:26;;;;;;;24.10;16.00;;;;;;;13.62;91.14;98125.84;107127;1257;73641;-37
2023/11/04 07:48:54;;;;;;;22.70;14.90;;;;;;;13.61;91.19;98122.42;107234;1258;67627;-37
2023/11/04 07:51:22;;;;;;;23.10;15.20;;;;;;;13.65;91.19;98117.09;107205;1257;71408;-37
2023/11/04 07:53:50;;;;;;;23.10;14.70;;;;;;;13.69;91.05;98108.09;107117;1257;59839;-36
2023/11/04 07:56:17;;;;;;;21.10;15.40;;;;;;;13.69;91.02;98099.92;107224;1257;60015;-36
2023/11/04 07:58:45;;;;;;;23.70;15.40;;;;;;;13.69;91.28;98101.48;107062;1257;71870;-36
2023/11/04 08:01:17;;;;;;;24.00;14.80;;;;;;;13.73;91.17;98104.13;107109;1257;66262;-36
2023/11/04 08:03:45;;;;;;;24.20;15.50;;;;;;;13.78;90.91;98117.21;107089;1259;71524;-36
2023/11/04 08:06:16;;;;;;;22.90;16.50;;;;;;;13.81;91.02;98124.56;107097;1262;60189;-36
2023/11/04 08:08:44;;;;;;;27.10;16.20;;;;;;;13.79;91.10;98119.38;107147;1257;59966;-36
2023/11/04 08:11:15;;;;;;;23.90;16.00;;;;;;;13.78;91.03;98114.42;107110;1257;73667;-36
2023/11/04 08:13:42;;;;;;;23.60;14.90;;;;;;;13.81;90.80;98116.02;107179;1257;66266;-37
2023/11/04 08:16:10;;;;;;;23.40;15.70;;;;;;;13.85;90.76;98115.16;107193;1257;72015;-36
2023/11/04 08:18:38;;;;;;;24.40;16.50;;;;;;;13.86;90.73;98111.27;107118;1257;62259;-36
2023/11/04 08:21:07;;;;;;;24.70;15.90;;;;;;;13.86;90.95;98114.92;107204;1257;60447;-36
2023/11/04 08:23:34;;;;;;;23.40;15.50;;;;;;;13.87;90.86;98121.69;107087;1257;72642;-36
2023/11/04 08:26:02;;;;;;;21.90;14.80;;;;;;;13.90;90.64;98116.65;107214;1257;67611;-36
2023/11/04 08:28:31;;;;;;;21.70;14.60;;;;;;;13.91;90.57;98110.80;107205;1256;72692;-36
2023/11/04 08:31:00;;;;;;;21.20;14.90;;;;;;;13.92;90.64;98106.75;107202;1256;60452;-37
2023/11/04 08:33:29;;;;;;;22.80;15.50;;;;;;;13.90;90.95;98111.73;107264;1257;60048;-36
2023/11/04 08:35:57;;;;;;;22.20;14.90;;;;;;;13.90;90.78;98123.19;107207;1257;73916;-36
2023/11/04 08:38:25;;;;;;;19.70;13.70;;;;;;;13.94;90.87;98121.03;107170;1261;66306;-37
2023/11/04 08:40:52;;;;;;;19.70;14.40;;;;;;;14.00;90.85;98120.17;107210;1257;72680;-36
2023/11/04 08:43:20;;;;;;;21.30;14.50;;;;;;;14.01;90.90;98115.02;107059;1257;60483;-36
2023/11/04 08:45:48;;;;;;;21.10;14.10;;;;;;;14.02;91.04;98117.13;107074;1257;60363;-36
2023/11/04 08:48:16;;;;;;;20.70;13.40;;;;;;;14.03;90.96;98110.95;107164;1257;73911;-37
2023/11/04 08:50:43;;;;;;;18.10;13.30;;;;;;;14.08;90.68;98105.48;107223;1257;67925;-37
2023/11/04 08:53:11;;;;;;;19.40;13.10;;;;;;;14.13;90.53;98101.75;107181;1257;71416;-37
2023/11/04 08:55:39;;;;;;;19.80;14.40;;;;;;;14.14;90.46;98099.02;107054;1259;60383;-37
2023/11/04 08:58:06;;;;;;;18.30;12.90;;;;;;;14.13;90.53;98096.71;107210;1257;60372;-36
2023/11/04 09:00:34;;;;;;;21.10;13.40;;;;;;;14.12;90.44;98095.23;107189;1257;74264;-36
2023/11/04 09:03:02;;;;;;;16.60;12.00;;;;;;;14.15;90.41;98089.51;107230;1257;67680;-37
2023/11/04 09:05:29;;;;;;;15.40;12.30;;;;;;;14.21;90.26;98090.73;107238;1257;72690;-36
2023/11/04 09:08:01;;;;;;;16.40;13.00;;;;;;;14.23;90.31;98083.66;107223;1263;60495;-37
2023/11/04 09:10:28;;;;;;;18.10;12.40;;;;;;;14.21;90.43;98071.02;107137;1257;60154;-36
2023/11/04 09:12:57;;;;;;;16.60;11.80;;;;;;;14.21;90.52;98071.65;107112;1257;73853;-36
2023/11/04 09:15:24;;;;;;;16.20;11.60;;;;;;;14.26;90.45;98075.54;107226;1262;67556;-36
2023/11/04 09:17:52;;;;;;;17.70;12.40;;;;;;;14.32;90.26;98083.23;107087;1259;72642;-37
2023/11/04 09:20:20;;;;;;;17.70;13.00;;;;;;;14.34;90.25;98079.36;107186;1257;60429;-37
2023/11/04 09:22:48;;;;;;;18.10;13.00;;;;;;;14.30;90.22;98076.17;107193;1257;60318;-37
2023/11/04 09:25:16;;;;;;;19.20;13.50;;;;;;;14.31;90.34;98074.20;107194;1256;73985;-37
2023/11/04 09:27:43;;;;;;;18.70;13.90;;;;;;;14.35;90.09;98078.58;107067;1257;65312;-37
2023/11/04 09:30:12;;;;;;;21.00;13.70;;;;;;;14.36;89.92;98074.08;107084;1261;72726;-37
2023/11/04 09:32:40;;;;;;;20.90;14.50;;;;;;;14.36;90.08;98065.66;107110;1257;60162;-37
2023/11/04 09:35:10;;;;;;;18.70;13.00;;;;;;;14.35;90.40;98060.97;107075;1256;60683;-37
2023/11/04 09:37:38;;;;;;;20.00;13.00;;;;;;;14.39;90.26;98059.86;107104;1257;73994;-37
2023/11/04 09:40:08;;;;;;;19.10;13.90;;;;;;;14.45;90.20;98057.16;107090;1257;66106;-37
2023/11/04 09:42:35;;;;;;;20.40;13.30;;;;;;;14.47;90.22;98052.00;107228;1258;71846;-37
2023/11/04 09:45:04;;;;;;;17.10;13.40;;;;;;;14.46;90.28;98043.45;107272;1257;60341;-37
2023/11/04 09:47:31;;;;;;;22.60;13.10;;;;;;;14.46;90.32;98029.35;107268;1257;60877;-37
2023/11/04 09:49:59;;;;;;;17.30;13.20;;;;;;;14.47;90.03;98020.60;107216;1257;73905;-37
2023/11/04 09:52:27;;;;;;;21.50;14.30;;;;;;;14.49;90.16;98010.65;107114;1257;67619;-37
2023/11/04 09:54:56;;;;;;;22.20;15.50;;;;;;;14.50;90.29;98004.64;107192;1257;71789;-37
2023/11/04 09:57:24;;;;;;;22.50;15.40;;;;;;;14.49;90.48;98003.72;107237;1257;60322;-37
2023/11/04 09:59:52;;;;;;;23.80;15.90;;;;;;;14.50;90.45;98000.27;107196;1262;60398;-37
2023/11/04 10:02:19;;;;;;;23.10;15.30;;;;;;;14.55;90.25;97997.15;107189;1257;73920;-37
2023/11/04 10:04:47;;;;;;;26.30;16.90;;;;;;;14.58;90.23;97996.38;107073;1262;67729;-37
2023/11/04 10:07:15;;;;;;;23.30;15.80;;;;;;;14.58;90.40;97991.09;107081;1257;71378;-38
2023/11/04 10:09:42;;;;;;;21.00;14.20;;;;;;;14.57;90.37;97992.44;107226;1257;60408;-37
2023/11/04 10:12:12;;;;;;;22.30;15.00;;;;;;;14.60;90.29;97987.63;107161;1261;60380;-37
2023/11/04 10:14:40;;;;;;;21.20;15.20;;;;;;;14.63;90.16;97987.01;107091;1261;73850;-37
2023/11/04 10:17:07;;;;;;;23.40;15.40;;;;;;;14.64;90.36;97984.50;107058;1257;66433;-37
2023/11/04 10:19:37;;;;;;;18.50;12.70;;;;;;;14.63;90.51;97982.10;106927;1258;72715;-37
2023/11/04 10:22:06;;;;;;;18.60;12.20;;;;;;;14.63;90.44;97980.63;106990;1257;60791;-37
2023/11/04 10:24:34;;;;;;;15.00;11.20;;;;;;;14.66;90.31;97974.73;107181;1258;60399;-37
2023/11/04 10:27:02;;;;;;;16.00;11.70;;;;;;;14.69;90.29;97966.65;107245;1257;73901;-37
2023/11/04 10:29:30;;;;;;;17.30;12.00;;;;;;;14.69;90.56;97964.86;107205;1257;68366;-37
2023/11/04 10:31:57;;;;;;;15.10;9.90;;;;;;;14.69;90.80;97966.33;107041;1264;72692;-37
2023/11/04 10:34:27;;;;;;;13.80;10.00;;;;;;;14.72;90.46;97958.30;107148;1263;61717;-37
2023/11/04 10:36:55;;;;;;;13.70;10.20;;;;;;;14.74;90.25;97944.88;107091;1257;62146;-37
2023/11/04 10:39:40;;;;;;;14.80;10.30;;;;;;;14.73;90.40;97942.09;107003;1257;76067;-36
2023/11/04 10:42:10;;;;;;;15.00;9.20;;;;;;;14.70;90.39;97941.60;107029;1258;69809;-36
2023/11/04 10:44:45;;;;;;;10.80;8.50;;;;;;;14.72;90.41;97941.09;107089;1257;73065;-37
2023/11/04 10:47:20;;;;;;;12.40;8.10;;;;;;;14.78;90.21;97940.97;107239;1262;60520;-36
2023/11/04 10:49:56;;;;;;;10.70;8.00;;;;;;;14.76;90.23;97935.16;107187;1257;62175;-36
2023/11/04 10:52:26;;;;;;;11.80;7.60;;;;;;;14.72;90.48;97938.45;107208;1258;72567;-37
2023/11/04 10:55:12;;;;;;;10.70;7.70;;;;;;;14.72;90.57;97939.52;107250;1257;67594;-36
2023/11/04 10:57:42;;;;;;;9.70;6.60;;;;;;;14.80;90.37;97936.10;107054;1257;71524;-36
2023/11/04 11:00:15;;;;;;;8.80;6.90;;;;;;;14.82;90.25;97937.36;107198;1258;60400;-36
2023/11/04 11:02:44;;;;;;;10.80;7.20;;;;;;;14.81;90.40;97935.38;107109;1257;60318;-37
2023/11/04 11:05:12;;;;;;;8.90;7.10;;;;;;;14.78;90.32;97940.19;107025;1257;73357;-37
2023/11/04 11:07:44;;;;;;;8.40;7.00;;;;;;;14.79;90.05;97937.60;107102;1257;67791;-36
2023/11/04 11:10:16;;;;;;;9.20;7.00;;;;;;;14.82;89.88;97931.77;107121;1258;71545;-37
2023/11/04 11:12:45;;;;;;;10.60;8.40;;;;;;;14.80;90.01;97925.65;107101;1257;60208;-36
2023/11/04 11:15:12;;;;;;;10.50;8.00;;;;;;;14.78;90.35;97919.52;107190;1258;60470;-37